sensor_id;sensor_type;location;lat;lon;timestamp;P1;durP1;ratioP1;P2;durP2;ratioP2
19887;SDS011;10106;51.332;12.336;2023-02-03T00:00:38;0.90;;;0.90;;
19887;SDS011;10106;51.332;12.336;2023-02-03T00:03:03;0.77;;;0.77;;
19887;SDS011;10106;51.332;12.336;2023-02-03T00:05:29;0.90;;;0.90;;
19887;SDS011;10106;51.332;12.336;2023-02-03T00:07:55;2.07;;;1.50;;
19887;SDS011;10106;51.332;12.336;2023-02-03T00:10:22;1.00;;;1.00;;
19887;SDS011;10106;51.332;12.336;2023-02-03T00:12:48;2.10;;;1.83;;
19887;SDS011;10106;51.332;12.336;2023-02-03T00:15:15;1.13;;;1.00;;
19887;SDS011;10106;51.332;12.336;2023-02-03T00:17:41;0.83;;;0.83;;
19887;SDS011;10106;51.332;12.336;2023-02-03T00:20:07;0.80;;;0.80;;
19887;SDS011;10106;51.332;12.336;2023-02-03T00:22:33;3.60;;;1.13;;
19887;SDS011;10106;51.332;12.336;2023-02-03T00:24:58;1.30;;;1.20;;
19887;SDS011;10106;51.332;12.336;2023-02-03T00:27:24;2.10;;;1.10;;
19887;SDS011;10106;51.332;12.336;2023-02-03T00:29:50;2.40;;;0.90;;
19887;SDS011;10106;51.332;12.336;2023-02-03T00:32:16;1.23;;;1.00;;
19887;SDS011;10106;51.332;12.336;2023-02-03T00:34:41;1.33;;;0.90;;
19887;SDS011;10106;51.332;12.336;2023-02-03T00:37:07;2.40;;;1.00;;
19887;SDS011;10106;51.332;12.336;2023-02-03T00:39:34;0.80;;;0.67;;
19887;SDS011;10106;51.332;12.336;2023-02-03T00:42:02;1.03;;;1.00;;
19887;SDS011;10106;51.332;12.336;2023-02-03T00:44:28;1.10;;;1.00;;
19887;SDS011;10106;51.332;12.336;2023-02-03T00:46:54;1.57;;;1.00;;
19887;SDS011;10106;51.332;12.336;2023-02-03T00:49:19;0.60;;;0.60;;
19887;SDS011;10106;51.332;12.336;2023-02-03T00:51:45;0.60;;;0.60;;
19887;SDS011;10106;51.332;12.336;2023-02-03T00:54:11;1.50;;;1.07;;
19887;SDS011;10106;51.332;12.336;2023-02-03T00:56:37;1.00;;;0.83;;
19887;SDS011;10106;51.332;12.336;2023-02-03T00:59:03;1.43;;;0.97;;
19887;SDS011;10106;51.332;12.336;2023-02-03T01:01:29;3.80;;;1.03;;
19887;SDS011;10106;51.332;12.336;2023-02-03T01:03:59;1.37;;;1.27;;
19887;SDS011;10106;51.332;12.336;2023-02-03T01:06:25;1.33;;;0.87;;
19887;SDS011;10106;51.332;12.336;2023-02-03T01:08:50;1.10;;;1.10;;
19887;SDS011;10106;51.332;12.336;2023-02-03T01:11:20;8.80;;;1.10;;
19887;SDS011;10106;51.332;12.336;2023-02-03T01:13:48;4.47;;;1.10;;
19887;SDS011;10106;51.332;12.336;2023-02-03T01:16:16;1.47;;;1.27;;
19887;SDS011;10106;51.332;12.336;2023-02-03T01:18:43;1.27;;;1.17;;
19887;SDS011;10106;51.332;12.336;2023-02-03T01:21:11;4.90;;;1.20;;
19887;SDS011;10106;51.332;12.336;2023-02-03T01:23:39;1.83;;;1.23;;
19887;SDS011;10106;51.332;12.336;2023-02-03T01:26:06;3.40;;;1.30;;
19887;SDS011;10106;51.332;12.336;2023-02-03T01:28:34;1.17;;;1.10;;
19887;SDS011;10106;51.332;12.336;2023-02-03T01:31:13;1.03;;;0.93;;
19887;SDS011;10106;51.332;12.336;2023-02-03T01:33:41;3.30;;;1.60;;
19887;SDS011;10106;51.332;12.336;2023-02-03T01:36:10;3.63;;;1.30;;
19887;SDS011;10106;51.332;12.336;2023-02-03T01:38:37;0.90;;;0.90;;
19887;SDS011;10106;51.332;12.336;2023-02-03T01:41:04;1.30;;;1.20;;
19887;SDS011;10106;51.332;12.336;2023-02-03T01:43:35;1.63;;;1.53;;
19887;SDS011;10106;51.332;12.336;2023-02-03T01:47:03;1.77;;;1.33;;
19887;SDS011;10106;51.332;12.336;2023-02-03T01:49:10;1.40;;;1.30;;
19887;SDS011;10106;51.332;12.336;2023-02-03T01:51:41;2.47;;;1.60;;
19887;SDS011;10106;51.332;12.336;2023-02-03T01:54:09;1.80;;;1.70;;
19887;SDS011;10106;51.332;12.336;2023-02-03T01:56:40;2.33;;;1.90;;
19887;SDS011;10106;51.332;12.336;2023-02-03T01:59:09;1.23;;;1.13;;
19887;SDS011;10106;51.332;12.336;2023-02-03T02:01:36;1.17;;;1.13;;
19887;SDS011;10106;51.332;12.336;2023-02-03T02:04:02;3.03;;;1.60;;
19887;SDS011;10106;51.332;12.336;2023-02-03T02:06:30;1.63;;;1.40;;
19887;SDS011;10106;51.332;12.336;2023-02-03T02:08:56;1.93;;;1.53;;
19887;SDS011;10106;51.332;12.336;2023-02-03T02:11:24;1.73;;;1.50;;
19887;SDS011;10106;51.332;12.336;2023-02-03T02:13:50;1.47;;;1.37;;
19887;SDS011;10106;51.332;12.336;2023-02-03T02:35:00;3.83;;;2.70;;
19887;SDS011;10106;51.332;12.336;2023-02-03T02:43:22;6.97;;;3.43;;
19887;SDS011;10106;51.332;12.336;2023-02-03T02:45:55;5.37;;;3.07;;
19887;SDS011;10106;51.332;12.336;2023-02-03T02:48:50;6.40;;;2.60;;
19887;SDS011;10106;51.332;12.336;2023-02-03T02:51:20;5.60;;;2.83;;
19887;SDS011;10106;51.332;12.336;2023-02-03T02:53:52;4.63;;;3.20;;
19887;SDS011;10106;51.332;12.336;2023-02-03T02:56:20;5.40;;;4.00;;
19887;SDS011;10106;51.332;12.336;2023-02-03T02:58:49;7.73;;;3.77;;
19887;SDS011;10106;51.332;12.336;2023-02-03T03:01:17;6.13;;;4.27;;
19887;SDS011;10106;51.332;12.336;2023-02-03T03:03:43;10.57;;;4.13;;
19887;SDS011;10106;51.332;12.336;2023-02-03T03:09:06;6.20;;;3.97;;
19887;SDS011;10106;51.332;12.336;2023-02-03T03:11:48;9.53;;;4.60;;
19887;SDS011;10106;51.332;12.336;2023-02-03T03:14:16;12.17;;;4.17;;
19887;SDS011;10106;51.332;12.336;2023-02-03T03:16:45;5.70;;;3.87;;
19887;SDS011;10106;51.332;12.336;2023-02-03T03:19:20;8.20;;;3.87;;
19887;SDS011;10106;51.332;12.336;2023-02-03T03:21:52;6.73;;;3.80;;
19887;SDS011;10106;51.332;12.336;2023-02-03T03:24:26;7.50;;;4.40;;
19887;SDS011;10106;51.332;12.336;2023-02-03T03:29:49;11.60;;;4.80;;
19887;SDS011;10106;51.332;12.336;2023-02-03T03:32:28;6.33;;;4.10;;
19887;SDS011;10106;51.332;12.336;2023-02-03T03:34:56;9.73;;;5.07;;
19887;SDS011;10106;51.332;12.336;2023-02-03T03:40:16;7.40;;;4.00;;
19887;SDS011;10106;51.332;12.336;2023-02-03T03:42:54;9.53;;;5.07;;
19887;SDS011;10106;51.332;12.336;2023-02-03T03:48:04;7.87;;;4.63;;
19887;SDS011;10106;51.332;12.336;2023-02-03T03:50:33;9.30;;;5.27;;
19887;SDS011;10106;51.332;12.336;2023-02-03T03:53:05;9.80;;;4.83;;
19887;SDS011;10106;51.332;12.336;2023-02-03T03:55:34;18.23;;;4.50;;
19887;SDS011;10106;51.332;12.336;2023-02-03T03:58:05;11.33;;;4.73;;
19887;SDS011;10106;51.332;12.336;2023-02-03T04:00:35;10.40;;;5.20;;
19887;SDS011;10106;51.332;12.336;2023-02-03T04:03:14;11.40;;;6.03;;
19887;SDS011;10106;51.332;12.336;2023-02-03T04:05:43;10.37;;;6.00;;
19887;SDS011;10106;51.332;12.336;2023-02-03T04:08:09;11.00;;;5.73;;
19887;SDS011;10106;51.332;12.336;2023-02-03T04:10:35;8.20;;;4.23;;
19887;SDS011;10106;51.332;12.336;2023-02-03T04:13:05;12.07;;;4.70;;
19887;SDS011;10106;51.332;12.336;2023-02-03T04:15:32;9.50;;;4.37;;
19887;SDS011;10106;51.332;12.336;2023-02-03T04:17:58;9.80;;;5.20;;
19887;SDS011;10106;51.332;12.336;2023-02-03T04:20:28;10.50;;;4.40;;
19887;SDS011;10106;51.332;12.336;2023-02-03T04:22:55;8.57;;;4.60;;
19887;SDS011;10106;51.332;12.336;2023-02-03T04:25:22;8.37;;;5.30;;
19887;SDS011;10106;51.332;12.336;2023-02-03T04:27:48;10.93;;;5.23;;
19887;SDS011;10106;51.332;12.336;2023-02-03T04:30:13;20.30;;;5.23;;
19887;SDS011;10106;51.332;12.336;2023-02-03T04:32:39;8.87;;;4.37;;
19887;SDS011;10106;51.332;12.336;2023-02-03T04:35:05;10.50;;;5.43;;
19887;SDS011;10106;51.332;12.336;2023-02-03T04:37:31;8.90;;;4.67;;
19887;SDS011;10106;51.332;12.336;2023-02-03T04:39:58;11.00;;;5.57;;
19887;SDS011;10106;51.332;12.336;2023-02-03T04:42:24;8.47;;;4.87;;
19887;SDS011;10106;51.332;12.336;2023-02-03T04:44:50;8.10;;;4.77;;
19887;SDS011;10106;51.332;12.336;2023-02-03T04:47:16;9.87;;;4.83;;
19887;SDS011;10106;51.332;12.336;2023-02-03T04:49:42;11.70;;;6.13;;
19887;SDS011;10106;51.332;12.336;2023-02-03T04:52:09;9.67;;;4.70;;
19887;SDS011;10106;51.332;12.336;2023-02-03T04:54:34;8.60;;;4.70;;
19887;SDS011;10106;51.332;12.336;2023-02-03T04:57:00;9.33;;;4.60;;
19887;SDS011;10106;51.332;12.336;2023-02-03T04:59:26;13.23;;;5.27;;
19887;SDS011;10106;51.332;12.336;2023-02-03T05:01:52;7.50;;;5.20;;
19887;SDS011;10106;51.332;12.336;2023-02-03T05:04:17;8.67;;;5.13;;
19887;SDS011;10106;51.332;12.336;2023-02-03T05:06:43;9.53;;;4.70;;
19887;SDS011;10106;51.332;12.336;2023-02-03T05:09:09;9.10;;;5.10;;
19887;SDS011;10106;51.332;12.336;2023-02-03T05:11:34;12.93;;;5.53;;
19887;SDS011;10106;51.332;12.336;2023-02-03T05:14:00;12.30;;;4.70;;
19887;SDS011;10106;51.332;12.336;2023-02-03T05:16:26;9.33;;;4.90;;
19887;SDS011;10106;51.332;12.336;2023-02-03T05:18:51;16.33;;;5.40;;
19887;SDS011;10106;51.332;12.336;2023-02-03T05:21:17;9.87;;;5.30;;
19887;SDS011;10106;51.332;12.336;2023-02-03T05:23:43;7.03;;;5.23;;
19887;SDS011;10106;51.332;12.336;2023-02-03T05:26:09;10.63;;;5.07;;
19887;SDS011;10106;51.332;12.336;2023-02-03T05:28:34;8.20;;;5.00;;
19887;SDS011;10106;51.332;12.336;2023-02-03T05:31:00;6.70;;;4.30;;
19887;SDS011;10106;51.332;12.336;2023-02-03T05:33:27;6.53;;;4.20;;
19887;SDS011;10106;51.332;12.336;2023-02-03T05:35:53;8.20;;;4.30;;
19887;SDS011;10106;51.332;12.336;2023-02-03T05:38:19;7.73;;;3.63;;
19887;SDS011;10106;51.332;12.336;2023-02-03T05:40:48;10.83;;;4.97;;
19887;SDS011;10106;51.332;12.336;2023-02-03T05:43:33;6.67;;;3.90;;
19887;SDS011;10106;51.332;12.336;2023-02-03T05:46:00;6.87;;;3.87;;
19887;SDS011;10106;51.332;12.336;2023-02-03T05:48:26;3.80;;;3.20;;
19887;SDS011;10106;51.332;12.336;2023-02-03T05:50:52;4.23;;;3.60;;
19887;SDS011;10106;51.332;12.336;2023-02-03T05:53:17;6.73;;;4.20;;
19887;SDS011;10106;51.332;12.336;2023-02-03T05:55:43;8.27;;;4.90;;
19887;SDS011;10106;51.332;12.336;2023-02-03T05:58:09;6.73;;;3.97;;
19887;SDS011;10106;51.332;12.336;2023-02-03T06:05:45;5.83;;;3.70;;
19887;SDS011;10106;51.332;12.336;2023-02-03T06:08:11;7.70;;;3.90;;
19887;SDS011;10106;51.332;12.336;2023-02-03T06:10:37;8.33;;;3.90;;
19887;SDS011;10106;51.332;12.336;2023-02-03T06:13:09;8.73;;;4.00;;
19887;SDS011;10106;51.332;12.336;2023-02-03T06:15:37;5.07;;;3.50;;
19887;SDS011;10106;51.332;12.336;2023-02-03T06:18:03;17.80;;;4.20;;
19887;SDS011;10106;51.332;12.336;2023-02-03T06:20:29;8.57;;;4.40;;
19887;SDS011;10106;51.332;12.336;2023-02-03T06:22:55;7.90;;;3.83;;
19887;SDS011;10106;51.332;12.336;2023-02-03T06:25:20;5.03;;;3.50;;
19887;SDS011;10106;51.332;12.336;2023-02-03T06:27:48;7.80;;;4.37;;
19887;SDS011;10106;51.332;12.336;2023-02-03T06:30:14;12.63;;;3.30;;
19887;SDS011;10106;51.332;12.336;2023-02-03T06:32:39;8.63;;;3.70;;
19887;SDS011;10106;51.332;12.336;2023-02-03T06:35:05;7.33;;;4.53;;
19887;SDS011;10106;51.332;12.336;2023-02-03T06:37:31;4.97;;;3.30;;
19887;SDS011;10106;51.332;12.336;2023-02-03T06:39:57;8.00;;;4.50;;
19887;SDS011;10106;51.332;12.336;2023-02-03T06:42:22;6.50;;;3.37;;
19887;SDS011;10106;51.332;12.336;2023-02-03T06:44:48;15.57;;;4.73;;
19887;SDS011;10106;51.332;12.336;2023-02-03T06:47:14;4.97;;;3.70;;
19887;SDS011;10106;51.332;12.336;2023-02-03T06:49:39;10.53;;;3.57;;
19887;SDS011;10106;51.332;12.336;2023-02-03T06:52:05;6.60;;;3.40;;
19887;SDS011;10106;51.332;12.336;2023-02-03T06:54:30;5.80;;;3.20;;
19887;SDS011;10106;51.332;12.336;2023-02-03T06:56:56;4.57;;;3.13;;
19887;SDS011;10106;51.332;12.336;2023-02-03T06:59:22;12.33;;;4.27;;
19887;SDS011;10106;51.332;12.336;2023-02-03T07:01:47;4.40;;;3.73;;
19887;SDS011;10106;51.332;12.336;2023-02-03T07:04:13;9.17;;;3.37;;
19887;SDS011;10106;51.332;12.336;2023-02-03T07:06:39;7.03;;;3.40;;
19887;SDS011;10106;51.332;12.336;2023-02-03T07:09:04;4.20;;;3.37;;
19887;SDS011;10106;51.332;12.336;2023-02-03T07:11:30;6.47;;;3.60;;
19887;SDS011;10106;51.332;12.336;2023-02-03T07:13:57;7.20;;;2.77;;
19887;SDS011;10106;51.332;12.336;2023-02-03T07:16:26;6.23;;;3.37;;
19887;SDS011;10106;51.332;12.336;2023-02-03T07:18:55;4.60;;;3.17;;
19887;SDS011;10106;51.332;12.336;2023-02-03T07:21:21;6.20;;;3.60;;
19887;SDS011;10106;51.332;12.336;2023-02-03T07:23:47;6.23;;;3.63;;
19887;SDS011;10106;51.332;12.336;2023-02-03T07:26:13;5.05;;;3.80;;
19887;SDS011;10106;51.332;12.336;2023-02-03T07:28:40;7.43;;;3.40;;
19887;SDS011;10106;51.332;12.336;2023-02-03T07:31:06;3.93;;;3.10;;
19887;SDS011;10106;51.332;12.336;2023-02-03T07:33:37;3.53;;;2.80;;
19887;SDS011;10106;51.332;12.336;2023-02-03T07:36:03;7.60;;;3.87;;
19887;SDS011;10106;51.332;12.336;2023-02-03T07:38:30;4.30;;;3.30;;
19887;SDS011;10106;51.332;12.336;2023-02-03T07:40:56;3.60;;;2.97;;
19887;SDS011;10106;51.332;12.336;2023-02-03T07:43:22;4.23;;;2.70;;
19887;SDS011;10106;51.332;12.336;2023-02-03T07:45:48;4.73;;;3.00;;
19887;SDS011;10106;51.332;12.336;2023-02-03T07:48:14;5.53;;;4.03;;
19887;SDS011;10106;51.332;12.336;2023-02-03T07:50:39;6.10;;;3.93;;
19887;SDS011;10106;51.332;12.336;2023-02-03T07:53:05;4.30;;;3.47;;
19887;SDS011;10106;51.332;12.336;2023-02-03T07:55:33;13.23;;;4.20;;
19887;SDS011;10106;51.332;12.336;2023-02-03T07:58:01;6.77;;;4.03;;
19887;SDS011;10106;51.332;12.336;2023-02-03T08:00:27;5.80;;;3.83;;
19887;SDS011;10106;51.332;12.336;2023-02-03T08:02:52;5.43;;;3.60;;
19887;SDS011;10106;51.332;12.336;2023-02-03T08:05:18;11.40;;;3.70;;
19887;SDS011;10106;51.332;12.336;2023-02-03T08:07:44;10.60;;;4.20;;
19887;SDS011;10106;51.332;12.336;2023-02-03T08:10:11;4.57;;;3.33;;
19887;SDS011;10106;51.332;12.336;2023-02-03T08:12:39;4.90;;;3.10;;
19887;SDS011;10106;51.332;12.336;2023-02-03T08:15:07;4.93;;;3.23;;
19887;SDS011;10106;51.332;12.336;2023-02-03T08:17:33;4.90;;;3.30;;
19887;SDS011;10106;51.332;12.336;2023-02-03T08:19:59;9.03;;;4.00;;
19887;SDS011;10106;51.332;12.336;2023-02-03T08:22:25;5.83;;;3.57;;
19887;SDS011;10106;51.332;12.336;2023-02-03T08:24:50;7.27;;;3.10;;
19887;SDS011;10106;51.332;12.336;2023-02-03T08:27:17;9.63;;;2.90;;
19887;SDS011;10106;51.332;12.336;2023-02-03T08:29:47;3.90;;;2.97;;
19887;SDS011;10106;51.332;12.336;2023-02-03T08:32:17;8.10;;;2.50;;
19887;SDS011;10106;51.332;12.336;2023-02-03T08:34:45;12.00;;;3.17;;
19887;SDS011;10106;51.332;12.336;2023-02-03T08:37:12;5.33;;;2.77;;
19887;SDS011;10106;51.332;12.336;2023-02-03T08:39:39;2.90;;;2.57;;
19887;SDS011;10106;51.332;12.336;2023-02-03T08:42:05;3.53;;;2.50;;
19887;SDS011;10106;51.332;12.336;2023-02-03T08:44:32;6.13;;;3.17;;
19887;SDS011;10106;51.332;12.336;2023-02-03T08:46:58;5.70;;;2.57;;
19887;SDS011;10106;51.332;12.336;2023-02-03T08:49:26;3.57;;;2.27;;
19887;SDS011;10106;51.332;12.336;2023-02-03T08:51:53;3.43;;;2.53;;
19887;SDS011;10106;51.332;12.336;2023-02-03T08:54:22;7.03;;;3.47;;
19887;SDS011;10106;51.332;12.336;2023-02-03T08:56:48;3.80;;;3.00;;
19887;SDS011;10106;51.332;12.336;2023-02-03T08:59:14;3.20;;;2.43;;
19887;SDS011;10106;51.332;12.336;2023-02-03T09:01:40;5.53;;;2.60;;
19887;SDS011;10106;51.332;12.336;2023-02-03T09:04:09;5.27;;;3.17;;
19887;SDS011;10106;51.332;12.336;2023-02-03T09:06:36;9.17;;;3.83;;
19887;SDS011;10106;51.332;12.336;2023-02-03T09:09:02;6.90;;;3.10;;
19887;SDS011;10106;51.332;12.336;2023-02-03T09:11:28;5.40;;;3.33;;
19887;SDS011;10106;51.332;12.336;2023-02-03T09:13:54;5.40;;;3.60;;
19887;SDS011;10106;51.332;12.336;2023-02-03T09:16:22;7.07;;;3.73;;
19887;SDS011;10106;51.332;12.336;2023-02-03T09:18:48;4.17;;;2.47;;
19887;SDS011;10106;51.332;12.336;2023-02-03T09:21:15;5.03;;;3.73;;
19887;SDS011;10106;51.332;12.336;2023-02-03T09:23:41;4.93;;;2.80;;
19887;SDS011;10106;51.332;12.336;2023-02-03T09:26:11;2.67;;;2.33;;
19887;SDS011;10106;51.332;12.336;2023-02-03T09:28:38;5.53;;;2.93;;
19887;SDS011;10106;51.332;12.336;2023-02-03T09:31:06;3.10;;;2.90;;
19887;SDS011;10106;51.332;12.336;2023-02-03T09:33:34;3.47;;;2.40;;
19887;SDS011;10106;51.332;12.336;2023-02-03T09:36:00;2.97;;;2.43;;
19887;SDS011;10106;51.332;12.336;2023-02-03T09:38:26;9.77;;;2.60;;
19887;SDS011;10106;51.332;12.336;2023-02-03T09:40:53;1.97;;;1.77;;
19887;SDS011;10106;51.332;12.336;2023-02-03T09:46:10;2.13;;;1.60;;
19887;SDS011;10106;51.332;12.336;2023-02-03T09:48:46;2.33;;;2.13;;
19887;SDS011;10106;51.332;12.336;2023-02-03T09:51:30;2.67;;;2.30;;
19887;SDS011;10106;51.332;12.336;2023-02-03T09:54:06;5.80;;;2.07;;
19887;SDS011;10106;51.332;12.336;2023-02-03T09:56:39;11.80;;;2.80;;
19887;SDS011;10106;51.332;12.336;2023-02-03T09:59:10;2.40;;;1.40;;
19887;SDS011;10106;51.332;12.336;2023-02-03T10:01:51;1.60;;;1.50;;
19887;SDS011;10106;51.332;12.336;2023-02-03T10:05:03;4.57;;;3.70;;
19887;SDS011;10106;51.332;12.336;2023-02-03T10:22:32;1.50;;;1.40;;
19887;SDS011;10106;51.332;12.336;2023-02-03T10:25:14;2.17;;;1.63;;
19887;SDS011;10106;51.332;12.336;2023-02-03T10:27:42;3.40;;;1.50;;
19887;SDS011;10106;51.332;12.336;2023-02-03T10:30:21;1.43;;;1.33;;
19887;SDS011;10106;51.332;12.336;2023-02-03T10:32:50;1.83;;;1.73;;
19887;SDS011;10106;51.332;12.336;2023-02-03T10:35:20;1.50;;;1.40;;
19887;SDS011;10106;51.332;12.336;2023-02-03T10:37:50;3.50;;;1.97;;
19887;SDS011;10106;51.332;12.336;2023-02-03T10:40:22;2.17;;;1.90;;
19887;SDS011;10106;51.332;12.336;2023-02-03T10:42:49;2.50;;;1.90;;
19887;SDS011;10106;51.332;12.336;2023-02-03T10:45:37;1.70;;;1.43;;
19887;SDS011;10106;51.332;12.336;2023-02-03T10:48:04;1.70;;;1.47;;
19887;SDS011;10106;51.332;12.336;2023-02-03T10:50:35;2.07;;;1.40;;
19887;SDS011;10106;51.332;12.336;2023-02-03T10:53:23;3.20;;;1.87;;
19887;SDS011;10106;51.332;12.336;2023-02-03T10:56:18;1.43;;;1.33;;
19887;SDS011;10106;51.332;12.336;2023-02-03T10:58:56;2.10;;;1.43;;
19887;SDS011;10106;51.332;12.336;2023-02-03T11:01:28;1.83;;;1.73;;
19887;SDS011;10106;51.332;12.336;2023-02-03T11:04:24;2.13;;;2.00;;
19887;SDS011;10106;51.332;12.336;2023-02-03T11:06:56;1.77;;;1.50;;
19887;SDS011;10106;51.332;12.336;2023-02-03T11:12:04;1.70;;;1.60;;
19887;SDS011;10106;51.332;12.336;2023-02-03T11:14:37;1.90;;;1.77;;
19887;SDS011;10106;51.332;12.336;2023-02-03T11:17:08;2.30;;;1.70;;
19887;SDS011;10106;51.332;12.336;2023-02-03T11:20:00;1.33;;;1.23;;
19887;SDS011;10106;51.332;12.336;2023-02-03T11:22:36;1.30;;;1.20;;
19887;SDS011;10106;51.332;12.336;2023-02-03T11:25:04;1.50;;;1.40;;
19887;SDS011;10106;51.332;12.336;2023-02-03T11:27:51;1.23;;;1.23;;
19887;SDS011;10106;51.332;12.336;2023-02-03T11:30:25;1.07;;;1.00;;
19887;SDS011;10106;51.332;12.336;2023-02-03T11:32:54;1.30;;;1.23;;
19887;SDS011;10106;51.332;12.336;2023-02-03T11:35:23;1.00;;;0.97;;
19887;SDS011;10106;51.332;12.336;2023-02-03T11:37:54;1.50;;;1.40;;
19887;SDS011;10106;51.332;12.336;2023-02-03T11:47:50;1.50;;;1.40;;
19887;SDS011;10106;51.332;12.336;2023-02-03T11:53:21;2.37;;;1.80;;
19887;SDS011;10106;51.332;12.336;2023-02-03T11:59:10;3.07;;;1.60;;
19887;SDS011;10106;51.332;12.336;2023-02-03T12:24:47;2.47;;;1.70;;
19887;SDS011;10106;51.332;12.336;2023-02-03T12:27:21;2.10;;;1.93;;
19887;SDS011;10106;51.332;12.336;2023-02-03T12:30:05;2.40;;;1.30;;
19887;SDS011;10106;51.332;12.336;2023-02-03T12:32:41;14.03;;;1.67;;
19887;SDS011;10106;51.332;12.336;2023-02-03T12:40:33;1.60;;;1.50;;
19887;SDS011;10106;51.332;12.336;2023-02-03T12:43:23;1.27;;;1.17;;
19887;SDS011;10106;51.332;12.336;2023-02-03T12:45:58;1.60;;;1.50;;
19887;SDS011;10106;51.332;12.336;2023-02-03T12:48:40;1.27;;;1.17;;
19887;SDS011;10106;51.332;12.336;2023-02-03T12:54:32;0.93;;;0.93;;
19887;SDS011;10106;51.332;12.336;2023-02-03T13:00:29;1.00;;;1.00;;
19887;SDS011;10106;51.332;12.336;2023-02-03T13:07:58;2.13;;;1.10;;
19887;SDS011;10106;51.332;12.336;2023-02-03T13:10:36;3.53;;;1.43;;
19887;SDS011;10106;51.332;12.336;2023-02-03T13:13:10;4.60;;;0.90;;
19887;SDS011;10106;51.332;12.336;2023-02-03T13:15:42;1.20;;;1.10;;
19887;SDS011;10106;51.332;12.336;2023-02-03T13:20:53;2.23;;;1.03;;
19887;SDS011;10106;51.332;12.336;2023-02-03T13:23:19;3.03;;;1.50;;
19887;SDS011;10106;51.332;12.336;2023-02-03T13:31:35;7.67;;;1.53;;
19887;SDS011;10106;51.332;12.336;2023-02-03T13:39:26;2.20;;;1.43;;
19887;SDS011;10106;51.332;12.336;2023-02-03T13:44:38;5.57;;;1.60;;
19887;SDS011;10106;51.332;12.336;2023-02-03T13:47:05;4.73;;;2.10;;
19887;SDS011;10106;51.332;12.336;2023-02-03T13:49:38;10.10;;;1.70;;
19887;SDS011;10106;51.332;12.336;2023-02-03T13:58:05;5.43;;;2.43;;
19887;SDS011;10106;51.332;12.336;2023-02-03T14:05:56;11.57;;;2.20;;
19887;SDS011;10106;51.332;12.336;2023-02-03T14:16:39;1.40;;;1.30;;
19887;SDS011;10106;51.332;12.336;2023-02-03T14:19:10;10.67;;;1.90;;
19887;SDS011;10106;51.332;12.336;2023-02-03T14:21:39;2.53;;;1.50;;
19887;SDS011;10106;51.332;12.336;2023-02-03T14:24:19;13.60;;;2.70;;
19887;SDS011;10106;51.332;12.336;2023-02-03T14:26:47;4.67;;;1.77;;
19887;SDS011;10106;51.332;12.336;2023-02-03T14:29:29;4.63;;;1.60;;
19887;SDS011;10106;51.332;12.336;2023-02-03T14:34:33;16.23;;;1.50;;
19887;SDS011;10106;51.332;12.336;2023-02-03T14:45:15;4.10;;;1.80;;
19887;SDS011;10106;51.332;12.336;2023-02-03T14:50:25;4.93;;;2.03;;
19887;SDS011;10106;51.332;12.336;2023-02-03T15:04:34;3.80;;;1.60;;
19887;SDS011;10106;51.332;12.336;2023-02-03T15:06:53;10.07;;;1.93;;
19887;SDS011;10106;51.332;12.336;2023-02-03T15:09:23;11.30;;;1.70;;
19887;SDS011;10106;51.332;12.336;2023-02-03T15:11:50;9.10;;;2.57;;
19887;SDS011;10106;51.332;12.336;2023-02-03T15:14:20;6.60;;;2.60;;
19887;SDS011;10106;51.332;12.336;2023-02-03T15:16:57;15.83;;;2.00;;
19887;SDS011;10106;51.332;12.336;2023-02-03T15:19:28;3.67;;;1.70;;
19887;SDS011;10106;51.332;12.336;2023-02-03T15:21:58;4.30;;;1.33;;
19887;SDS011;10106;51.332;12.336;2023-02-03T15:24:24;2.80;;;2.00;;
19887;SDS011;10106;51.332;12.336;2023-02-03T15:26:58;7.83;;;1.97;;
19887;SDS011;10106;51.332;12.336;2023-02-03T15:31:58;3.60;;;1.70;;
19887;SDS011;10106;51.332;12.336;2023-02-03T15:34:39;5.10;;;1.90;;
19887;SDS011;10106;51.332;12.336;2023-02-03T15:37:11;5.43;;;1.70;;
19887;SDS011;10106;51.332;12.336;2023-02-03T15:39:51;4.73;;;1.63;;
19887;SDS011;10106;51.332;12.336;2023-02-03T15:45:22;3.30;;;1.10;;
19887;SDS011;10106;51.332;12.336;2023-02-03T15:50:43;12.00;;;2.07;;
19887;SDS011;10106;51.332;12.336;2023-02-03T15:55:46;1.57;;;1.40;;
19887;SDS011;10106;51.332;12.336;2023-02-03T15:58:19;5.23;;;1.50;;
19887;SDS011;10106;51.332;12.336;2023-02-03T16:00:49;4.90;;;1.70;;
19887;SDS011;10106;51.332;12.336;2023-02-03T16:03:27;5.37;;;1.37;;
19887;SDS011;10106;51.332;12.336;2023-02-03T16:06:44;5.93;;;1.50;;
19887;SDS011;10106;51.332;12.336;2023-02-03T16:09:02;1.53;;;1.43;;
19887;SDS011;10106;51.332;12.336;2023-02-03T16:11:35;3.33;;;2.37;;
19887;SDS011;10106;51.332;12.336;2023-02-03T16:14:02;10.60;;;1.60;;
19887;SDS011;10106;51.332;12.336;2023-02-03T16:16:35;11.20;;;1.60;;
19887;SDS011;10106;51.332;12.336;2023-02-03T16:19:29;3.80;;;1.60;;
19887;SDS011;10106;51.332;12.336;2023-02-03T16:22:02;9.50;;;1.53;;
19887;SDS011;10106;51.332;12.336;2023-02-03T16:24:43;16.60;;;5.77;;
19887;SDS011;10106;51.332;12.336;2023-02-03T16:29:51;1.97;;;1.03;;
19887;SDS011;10106;51.332;12.336;2023-02-03T16:32:35;6.00;;;2.40;;
19887;SDS011;10106;51.332;12.336;2023-02-03T16:35:20;8.57;;;2.57;;
19887;SDS011;10106;51.332;12.336;2023-02-03T16:38:14;9.63;;;1.93;;
19887;SDS011;10106;51.332;12.336;2023-02-03T16:41:00;5.23;;;1.70;;
19887;SDS011;10106;51.332;12.336;2023-02-03T16:43:58;2.73;;;1.60;;
19887;SDS011;10106;51.332;12.336;2023-02-03T16:46:43;8.20;;;1.50;;
19887;SDS011;10106;51.332;12.336;2023-02-03T16:49:29;3.27;;;1.30;;
19887;SDS011;10106;51.332;12.336;2023-02-03T16:52:13;9.30;;;2.07;;
19887;SDS011;10106;51.332;12.336;2023-02-03T16:54:39;5.00;;;1.50;;
19887;SDS011;10106;51.332;12.336;2023-02-03T16:57:04;3.13;;;1.67;;
19887;SDS011;10106;51.332;12.336;2023-02-03T16:59:30;11.57;;;2.37;;
19887;SDS011;10106;51.332;12.336;2023-02-03T17:01:56;4.37;;;1.30;;
19887;SDS011;10106;51.332;12.336;2023-02-03T17:04:21;9.60;;;2.60;;
19887;SDS011;10106;51.332;12.336;2023-02-03T17:06:47;3.83;;;1.47;;
19887;SDS011;10106;51.332;12.336;2023-02-03T17:09:15;15.13;;;1.90;;
19887;SDS011;10106;51.332;12.336;2023-02-03T17:11:46;8.00;;;2.70;;
19887;SDS011;10106;51.332;12.336;2023-02-03T17:14:12;10.90;;;5.83;;
19887;SDS011;10106;51.332;12.336;2023-02-03T17:16:38;6.60;;;2.63;;
19887;SDS011;10106;51.332;12.336;2023-02-03T17:19:04;11.77;;;3.17;;
19887;SDS011;10106;51.332;12.336;2023-02-03T17:21:29;8.57;;;3.00;;
19887;SDS011;10106;51.332;12.336;2023-02-03T17:23:56;16.30;;;5.10;;
19887;SDS011;10106;51.332;12.336;2023-02-03T17:26:23;16.13;;;5.50;;
19887;SDS011;10106;51.332;12.336;2023-02-03T17:28:49;11.60;;;3.20;;
19887;SDS011;10106;51.332;12.336;2023-02-03T17:31:17;10.40;;;3.57;;
19887;SDS011;10106;51.332;12.336;2023-02-03T17:33:44;4.37;;;1.90;;
19887;SDS011;10106;51.332;12.336;2023-02-03T17:36:14;15.60;;;7.60;;
19887;SDS011;10106;51.332;12.336;2023-02-03T17:38:42;9.23;;;3.67;;
19887;SDS011;10106;51.332;12.336;2023-02-03T17:41:10;7.93;;;3.73;;
19887;SDS011;10106;51.332;12.336;2023-02-03T17:43:37;14.73;;;5.60;;
19887;SDS011;10106;51.332;12.336;2023-02-03T17:46:03;10.03;;;3.73;;
19887;SDS011;10106;51.332;12.336;2023-02-03T17:48:29;8.17;;;3.27;;
19887;SDS011;10106;51.332;12.336;2023-02-03T17:51:03;16.23;;;4.57;;
19887;SDS011;10106;51.332;12.336;2023-02-03T17:53:30;24.97;;;10.50;;
19887;SDS011;10106;51.332;12.336;2023-02-03T17:55:56;29.00;;;10.73;;
19887;SDS011;10106;51.332;12.336;2023-02-03T17:58:22;14.43;;;5.20;;